createdAt,value
2019-01-13T00:01:58.645Z,1.10
2019-01-13T00:04:29.295Z,0.80
2019-01-13T00:06:59.782Z,0.90
2019-01-13T00:09:30.235Z,0.80
2019-01-13T00:12:00.798Z,0.70
2019-01-13T00:14:31.321Z,0.90
2019-01-13T00:17:01.912Z,0.80
2019-01-13T00:19:32.596Z,0.90
2019-01-13T00:22:03.008Z,0.90
2019-01-13T00:24:33.562Z,0.80
2019-01-13T00:27:04.067Z,0.80
2019-01-13T00:29:34.757Z,0.90
2019-01-13T00:32:07.516Z,0.90
2019-01-13T00:34:38.035Z,0.70
2019-01-13T00:37:08.483Z,0.80
2019-01-13T00:39:40.707Z,0.80
2019-01-13T00:42:13.245Z,0.70
2019-01-13T00:44:43.942Z,0.60
2019-01-13T00:47:14.647Z,0.60
2019-01-13T00:49:45.248Z,0.60
2019-01-13T00:52:15.738Z,0.60
2019-01-13T00:54:46.271Z,0.60
2019-01-13T00:57:19.766Z,0.50
2019-01-13T00:59:50.479Z,0.60
2019-01-13T01:02:22.827Z,0.50
2019-01-13T01:04:53.390Z,0.60
2019-01-13T01:07:24.192Z,0.50
2019-01-13T01:09:54.968Z,0.40
2019-01-13T01:12:25.360Z,0.40
2019-01-13T01:14:55.775Z,0.40
2019-01-13T01:17:26.622Z,0.40
2019-01-13T01:19:57.062Z,0.50
2019-01-13T01:22:27.593Z,0.40
2019-01-13T01:24:58.209Z,0.40
2019-01-13T01:27:28.866Z,0.20
2019-01-13T01:29:59.415Z,0.20
2019-01-13T01:32:30.273Z,0.10
2019-01-13T01:35:00.827Z,0.20
2019-01-13T01:37:31.514Z,0.20
2019-01-13T01:40:04.724Z,0.10
2019-01-13T01:42:35.506Z,0.30
2019-01-13T01:45:07.604Z,0.40
2019-01-13T01:47:38.328Z,0.50
2019-01-13T01:50:10.058Z,0.70
2019-01-13T01:52:40.866Z,0.80
2019-01-13T01:55:15.171Z,0.80
2019-01-13T01:57:46.009Z,0.90
2019-01-13T02:00:21.797Z,0.90
2019-01-13T02:02:53.050Z,0.80
2019-01-13T02:05:23.595Z,0.90
2019-01-13T02:07:54.173Z,0.70
2019-01-13T02:10:24.665Z,0.50
2019-01-13T02:12:55.474Z,0.50
2019-01-13T02:15:27.611Z,0.50
2019-01-13T02:17:58.409Z,0.50
2019-01-13T02:20:29.261Z,0.50
2019-01-13T02:22:59.980Z,0.60
2019-01-13T02:25:30.989Z,0.70
2019-01-13T02:28:01.580Z,0.70
2019-01-13T02:30:32.112Z,0.80
2019-01-13T02:33:02.881Z,0.70
2019-01-13T02:35:34.331Z,0.40
2019-01-13T02:38:06.562Z,0.50
2019-01-13T02:40:39.371Z,0.50
2019-01-13T02:43:09.953Z,0.60
2019-01-13T02:45:41.493Z,0.70
2019-01-13T02:48:12.161Z,0.80
2019-01-13T02:50:44.459Z,0.80
2019-01-13T02:53:15.117Z,0.90
2019-01-13T02:55:45.777Z,0.80
2019-01-13T02:58:16.244Z,0.80
2019-01-13T03:00:57.023Z,0.80
2019-01-13T03:03:23.977Z,0.90
2019-01-13T03:05:55.348Z,0.90
2019-01-13T03:08:26.015Z,0.80
2019-01-13T03:10:56.657Z,0.90
2019-01-13T03:13:27.330Z,0.80
2019-01-13T03:15:57.934Z,0.80
2019-01-13T03:18:28.740Z,0.90
2019-01-13T03:21:01.573Z,0.80
2019-01-13T03:23:33.958Z,0.90
2019-01-13T03:26:04.669Z,1.00
2019-01-13T03:28:36.064Z,1.00
2019-01-13T03:31:11.823Z,0.90
2019-01-13T03:33:41.336Z,1.00
2019-01-13T03:36:12.053Z,1.00
2019-01-13T03:38:48.771Z,1.00
2019-01-13T03:41:20.443Z,0.80
2019-01-13T03:43:51.337Z,0.90
2019-01-13T03:46:22.157Z,1.00
2019-01-13T03:48:52.861Z,1.10
2019-01-13T03:51:23.461Z,1.10
2019-01-13T03:53:54.403Z,1.10
2019-01-13T03:56:24.865Z,1.20
2019-01-13T03:58:55.621Z,1.30
2019-01-13T04:01:26.290Z,1.20
2019-01-13T04:03:57.230Z,1.30
2019-01-13T04:06:27.757Z,1.30
2019-01-13T04:08:58.875Z,1.40
2019-01-13T04:11:29.580Z,1.30
2019-01-13T04:14:00.233Z,1.20
2019-01-13T04:16:31.065Z,1.30
2019-01-13T04:19:02.099Z,1.40
2019-01-13T04:21:32.698Z,1.40
2019-01-13T04:24:03.443Z,1.40
2019-01-13T04:26:34.037Z,1.60
2019-01-13T04:29:04.949Z,1.60
2019-01-13T04:31:35.758Z,1.60
2019-01-13T04:34:06.761Z,1.60
2019-01-13T04:36:37.443Z,1.60
2019-01-13T04:39:08.837Z,1.70
2019-01-13T04:41:39.561Z,1.70
2019-01-13T04:44:12.797Z,1.70
2019-01-13T04:46:45.944Z,1.80
2019-01-13T04:49:16.799Z,1.90
2019-01-13T04:51:47.451Z,1.90
2019-01-13T04:54:21.262Z,1.90
2019-01-13T04:56:52.196Z,1.80
2019-01-13T04:59:22.908Z,1.80
2019-01-13T05:01:53.762Z,1.80
2019-01-13T05:04:27.235Z,1.90
2019-01-13T05:06:58.846Z,1.90
2019-01-13T05:09:29.579Z,1.80
2019-01-13T05:12:00.291Z,1.80
2019-01-13T05:14:31.198Z,1.70
2019-01-13T05:17:02.123Z,1.70
2019-01-13T05:19:33.745Z,1.80
2019-01-13T05:22:05.275Z,1.90
2019-01-13T05:24:38.251Z,1.90
2019-01-13T05:27:10.250Z,2.00
2019-01-13T05:29:54.676Z,2.00
2019-01-13T05:32:35.997Z,2.10
2019-01-13T05:35:28.596Z,2.20
2019-01-13T05:38:25.517Z,2.40
2019-01-13T05:41:32.441Z,2.40
2019-01-13T05:50:33.850Z,2.50
2019-01-13T05:53:55.860Z,2.50
2019-01-13T06:00:47.983Z,2.60
2019-01-13T06:03:45.958Z,2.60
2019-01-13T06:06:18.205Z,2.70
2019-01-13T06:08:50.390Z,2.80
2019-01-13T06:11:20.952Z,2.90
2019-01-13T06:13:51.292Z,2.90
2019-01-13T06:16:23.551Z,3.00
2019-01-13T06:18:53.991Z,3.10
2019-01-13T06:21:24.648Z,3.10
2019-01-13T06:24:01.242Z,3.10
2019-01-13T06:26:31.827Z,3.10
2019-01-13T06:29:02.279Z,3.20
2019-01-13T06:31:32.806Z,3.20
2019-01-13T06:34:03.423Z,3.20
2019-01-13T06:36:34.054Z,3.20
2019-01-13T06:39:09.621Z,3.20
2019-01-13T06:41:40.999Z,3.20
2019-01-13T06:44:11.631Z,3.30
2019-01-13T06:46:42.755Z,3.30
2019-01-13T06:49:14.487Z,3.30
2019-01-13T06:51:54.736Z,3.20
2019-01-13T06:54:25.650Z,3.10
2019-01-13T06:56:57.880Z,3.10
2019-01-13T06:59:31.638Z,3.10
2019-01-13T07:02:05.139Z,3.10
2019-01-13T07:04:35.831Z,3.20
2019-01-13T07:07:06.283Z,3.20
2019-01-13T07:09:36.862Z,3.20
2019-01-13T07:12:07.353Z,3.20
2019-01-13T07:14:37.707Z,3.30
2019-01-13T07:17:13.261Z,3.20
2019-01-13T07:19:45.335Z,3.30
2019-01-13T07:22:15.809Z,3.10
2019-01-13T07:24:50.411Z,3.20
2019-01-13T07:27:20.888Z,3.20
2019-01-13T07:29:53.110Z,3.10
2019-01-13T07:32:23.701Z,3.10
2019-01-13T07:34:54.180Z,3.10
2019-01-13T07:37:24.989Z,3.10
2019-01-13T07:39:55.518Z,3.20
2019-01-13T07:42:26.547Z,3.60
2019-01-13T07:44:57.107Z,3.70
2019-01-13T07:47:39.302Z,3.70
2019-01-13T07:50:11.714Z,4.00
2019-01-13T07:52:43.493Z,4.20
2019-01-13T07:55:16.140Z,4.30
2019-01-13T07:57:52.840Z,4.30
2019-01-13T08:00:25.826Z,4.40
2019-01-13T08:02:56.667Z,4.50
2019-01-13T08:05:27.159Z,4.60
2019-01-13T08:07:57.774Z,4.70
2019-01-13T08:10:34.795Z,4.80
2019-01-13T08:13:05.569Z,4.80
2019-01-13T08:15:39.032Z,5.00
2019-01-13T08:18:09.828Z,5.10
2019-01-13T08:20:40.487Z,5.20
2019-01-13T08:23:11.207Z,5.30
2019-01-13T08:25:44.106Z,5.40
2019-01-13T08:28:17.220Z,5.40
2019-01-13T08:30:48.598Z,5.40
2019-01-13T08:33:19.191Z,5.50
2019-01-13T08:35:49.568Z,5.50
2019-01-13T08:38:20.350Z,5.60
2019-01-13T08:40:51.951Z,5.60
2019-01-13T08:43:22.651Z,5.60
2019-01-13T08:45:53.151Z,5.60
2019-01-13T08:48:24.074Z,5.70
2019-01-13T08:50:54.448Z,5.60
2019-01-13T08:53:28.074Z,5.60
2019-01-13T08:55:58.962Z,5.60
2019-01-13T08:58:29.691Z,5.60
2019-01-13T09:01:00.120Z,5.60
2019-01-13T09:03:30.660Z,5.70
2019-01-13T09:06:01.303Z,5.70
2019-01-13T09:08:31.839Z,5.80
2019-01-13T09:11:02.369Z,5.70
2019-01-13T09:13:34.467Z,5.80
2019-01-13T09:16:05.018Z,5.70
2019-01-13T09:18:35.627Z,5.80
2019-01-13T09:21:09.051Z,5.80
2019-01-13T09:23:40.282Z,5.90
2019-01-13T09:26:16.004Z,5.90
2019-01-13T09:28:46.843Z,5.90
2019-01-13T09:31:17.456Z,5.90
2019-01-13T09:33:47.851Z,5.90
2019-01-13T09:36:18.263Z,6.00
2019-01-13T09:38:49.206Z,6.10
2019-01-13T09:41:19.635Z,6.10
2019-01-13T09:43:50.251Z,6.00
2019-01-13T09:46:22.472Z,6.00
2019-01-13T09:48:54.075Z,6.10
2019-01-13T09:51:26.332Z,6.20
2019-01-13T09:53:57.150Z,6.20
2019-01-13T09:56:29.641Z,6.10
2019-01-13T09:59:00.195Z,6.20
2019-01-13T10:01:30.886Z,6.30
2019-01-13T10:04:01.551Z,6.30
2019-01-13T10:06:32.076Z,6.30
2019-01-13T10:09:02.861Z,6.30
2019-01-13T10:11:35.747Z,6.40
2019-01-13T10:14:09.550Z,6.40
2019-01-13T10:16:40.523Z,6.60
2019-01-13T10:19:11.050Z,6.70
2019-01-13T10:21:44.031Z,6.80
2019-01-13T10:24:14.458Z,6.80
2019-01-13T10:26:44.930Z,6.80
2019-01-13T10:29:15.405Z,7.00
2019-01-13T10:31:46.047Z,6.80
2019-01-13T10:34:16.731Z,6.90
2019-01-13T10:36:47.220Z,6.90
2019-01-13T10:39:18.047Z,6.70
2019-01-13T10:41:48.523Z,6.80
2019-01-13T10:44:18.882Z,6.70
2019-01-13T10:46:49.415Z,6.80
2019-01-13T10:49:20.036Z,6.70
2019-01-13T10:51:53.230Z,6.80
2019-01-13T10:54:24.072Z,6.80
2019-01-13T10:56:54.614Z,6.80
2019-01-13T10:59:25.069Z,6.70
2019-01-13T11:01:57.343Z,6.70
2019-01-13T11:04:27.891Z,6.70
2019-01-13T11:06:58.499Z,6.80
2019-01-13T11:09:29.437Z,6.80
2019-01-13T11:12:01.649Z,6.90
2019-01-13T11:14:32.143Z,7.00
2019-01-13T11:17:02.583Z,7.10
2019-01-13T11:19:39.282Z,7.10
2019-01-13T11:22:20.163Z,7.10
2019-01-13T11:24:51.408Z,7.20
2019-01-13T11:27:23.047Z,7.10
2019-01-13T11:29:56.103Z,7.20
2019-01-13T11:32:39.473Z,7.10
2019-01-13T11:35:11.643Z,7.40
2019-01-13T11:37:42.288Z,8.00
2019-01-13T11:54:17.253Z,7.90
2019-01-13T11:56:48.630Z,8.00
2019-01-13T11:59:19.223Z,8.00
2019-01-13T12:01:55.223Z,7.90
2019-01-13T12:07:22.992Z,7.80
2019-01-13T12:09:55.083Z,7.80
2019-01-13T12:12:25.612Z,7.70
2019-01-13T12:14:56.079Z,7.80
2019-01-13T12:17:26.826Z,7.80
2019-01-13T12:19:57.311Z,7.70
2019-01-13T12:22:27.903Z,7.60
2019-01-13T12:24:58.807Z,7.70
2019-01-13T12:27:29.686Z,7.60
2019-01-13T12:30:00.235Z,7.70
2019-01-13T12:32:30.762Z,7.70
2019-01-13T12:43:46.591Z,7.80
2019-01-13T12:46:51.781Z,8.00
2019-01-13T12:49:27.263Z,8.00
2019-01-13T12:51:58.630Z,8.10
2019-01-13T12:54:29.175Z,8.00
2019-01-13T12:57:00.235Z,8.20
2019-01-13T13:22:44.070Z,8.20
2019-01-13T13:25:34.523Z,8.10
2019-01-13T13:28:06.036Z,7.90
2019-01-13T13:30:41.683Z,7.90
2019-01-13T13:33:29.528Z,7.90
2019-01-13T13:36:04.186Z,8.00
2019-01-13T13:38:40.686Z,8.10
2019-01-13T13:41:31.899Z,8.00
2019-01-13T13:44:15.477Z,7.90
2019-01-13T13:47:09.563Z,7.80
2019-01-13T13:49:53.409Z,7.80
2019-01-13T13:52:57.022Z,7.80
2019-01-13T13:55:52.254Z,7.70
2019-01-13T13:59:28.008Z,7.70
2019-01-13T14:02:14.266Z,7.60
2019-01-13T14:04:52.331Z,7.40
2019-01-13T14:07:38.953Z,7.40
2019-01-13T14:10:24.968Z,7.40
2019-01-13T14:19:45.654Z,7.00
2019-01-13T14:22:16.665Z,7.00
2019-01-13T14:24:52.319Z,6.90
2019-01-13T14:27:29.777Z,6.90
2019-01-13T14:30:00.971Z,6.80
2019-01-13T14:32:39.046Z,6.80
2019-01-13T14:35:09.778Z,6.70
2019-01-13T14:37:42.139Z,6.70
2019-01-13T14:40:20.441Z,6.70
2019-01-13T14:42:50.922Z,6.80
2019-01-13T14:45:28.454Z,6.80
2019-01-13T14:47:59.695Z,6.80
2019-01-13T14:50:37.422Z,6.80
2019-01-13T14:53:23.730Z,6.90
2019-01-13T14:55:56.244Z,6.80
2019-01-13T14:58:32.347Z,6.70
2019-01-13T15:01:06.175Z,6.70
2019-01-13T15:03:36.763Z,6.70
2019-01-13T15:06:07.195Z,6.60
2019-01-13T15:08:38.137Z,6.50
2019-01-13T15:11:08.755Z,6.50
2019-01-13T15:13:39.364Z,6.40
2019-01-13T15:16:12.871Z,6.30
2019-01-13T15:18:43.430Z,6.30
2019-01-13T15:25:51.062Z,6.10
2019-01-13T15:35:38.515Z,6.20
2019-01-13T15:38:15.441Z,6.40
2019-01-13T15:40:46.710Z,6.40
2019-01-13T15:43:20.411Z,6.50
2019-01-13T15:45:58.143Z,6.40
2019-01-13T15:49:14.559Z,6.40
2019-01-13T15:51:50.508Z,6.30
2019-01-13T15:54:26.179Z,6.30
2019-01-13T15:57:14.218Z,6.30
2019-01-13T15:59:47.965Z,6.30
2019-01-13T16:02:23.275Z,6.40
2019-01-13T16:04:55.339Z,6.40
2019-01-13T16:07:29.401Z,6.40
2019-01-13T16:10:03.716Z,6.30
2019-01-13T16:12:34.469Z,6.30
2019-01-13T16:15:07.872Z,6.30
2019-01-13T16:17:39.678Z,6.20
2019-01-13T16:20:19.763Z,6.10
2019-01-13T16:22:50.177Z,6.00
2019-01-13T16:25:20.819Z,6.00
2019-01-13T16:27:55.166Z,5.90
2019-01-13T16:30:27.508Z,5.80
2019-01-13T16:33:00.394Z,5.70
2019-01-13T16:35:33.696Z,5.50
2019-01-13T16:38:06.872Z,5.50
2019-01-13T16:40:37.487Z,5.40
2019-01-13T16:43:11.334Z,5.30
2019-01-13T16:45:41.856Z,5.10
2019-01-13T16:48:16.347Z,5.10
2019-01-13T16:50:46.893Z,4.90
2019-01-13T16:53:20.535Z,4.90
2019-01-13T16:55:51.123Z,4.80
2019-01-13T16:58:21.947Z,4.80
2019-01-13T17:00:54.171Z,4.70
2019-01-13T17:03:25.413Z,4.80
2019-01-13T17:05:57.607Z,4.80
2019-01-13T17:08:32.952Z,5.00
2019-01-13T17:11:06.485Z,4.90
2019-01-13T17:14:20.371Z,4.90
2019-01-13T17:16:50.896Z,4.90
2019-01-13T17:19:23.416Z,5.00
2019-01-13T17:21:53.880Z,5.00
2019-01-13T17:24:25.239Z,5.10
2019-01-13T17:26:55.788Z,5.20
2019-01-13T17:29:30.956Z,5.30
2019-01-13T17:32:04.578Z,5.40
2019-01-13T17:34:35.989Z,5.40
2019-01-13T17:37:07.097Z,5.30
2019-01-13T17:39:39.610Z,5.30
2019-01-13T17:42:10.065Z,5.30
2019-01-13T17:44:41.723Z,5.40
2019-01-13T17:47:19.094Z,5.40
2019-01-13T17:49:54.470Z,5.40
2019-01-13T17:52:44.889Z,5.50
2019-01-13T17:55:33.717Z,5.40
2019-01-13T17:58:14.405Z,5.40
2019-01-13T18:02:02.938Z,5.40
2019-01-13T18:04:54.839Z,5.40
2019-01-13T18:08:01.365Z,5.30
2019-01-13T18:10:32.176Z,5.30
2019-01-13T18:16:21.552Z,5.30
2019-01-13T18:19:28.697Z,5.20
2019-01-13T18:22:40.140Z,5.20
2019-01-13T18:25:42.158Z,5.10
2019-01-13T18:28:13.072Z,5.10
2019-01-13T18:34:18.048Z,4.90
2019-01-13T18:36:48.729Z,4.80
2019-01-13T18:39:23.863Z,4.60
2019-01-13T18:41:55.711Z,4.30
2019-01-13T18:44:36.176Z,4.20
2019-01-13T18:47:26.418Z,3.90
2019-01-13T18:54:21.291Z,3.80
2019-01-13T18:57:03.998Z,3.60
2019-01-13T19:00:17.897Z,3.60
2019-01-13T19:03:14.013Z,3.50
2019-01-13T19:14:07.445Z,3.30
2019-01-13T19:23:21.323Z,3.20
2019-01-13T19:25:51.999Z,3.30
2019-01-13T19:28:23.685Z,3.30
2019-01-13T19:30:54.259Z,3.30
2019-01-13T19:33:25.384Z,3.20
2019-01-13T19:35:55.902Z,3.10
2019-01-13T19:38:26.708Z,3.10
2019-01-13T19:40:57.198Z,3.00
2019-01-13T19:43:33.089Z,2.90
2019-01-13T19:46:08.408Z,2.80
2019-01-13T19:48:39.276Z,2.80
2019-01-13T19:51:09.952Z,2.70
2019-01-13T19:53:40.645Z,2.70
2019-01-13T19:56:11.133Z,2.70
2019-01-13T19:58:45.102Z,2.70
2019-01-13T20:01:15.604Z,2.70
2019-01-13T20:03:46.420Z,2.70
2019-01-13T20:06:22.195Z,2.60
2019-01-13T20:09:03.811Z,2.50
2019-01-13T20:11:35.627Z,2.50
2019-01-13T20:14:11.220Z,2.30
2019-01-13T20:16:43.218Z,2.30
2019-01-13T20:19:14.017Z,2.20
2019-01-13T20:21:44.653Z,2.30
2019-01-13T20:24:15.436Z,2.20
2019-01-13T20:26:47.052Z,2.10
2019-01-13T20:29:17.620Z,2.10
2019-01-13T20:31:48.271Z,2.10
2019-01-13T20:34:20.861Z,2.00
2019-01-13T20:36:52.492Z,2.00
2019-01-13T20:39:23.147Z,2.00
2019-01-13T20:41:53.698Z,1.90
2019-01-13T20:44:24.321Z,1.90
2019-01-13T20:46:55.888Z,2.00
2019-01-13T20:49:26.499Z,1.90
2019-01-13T20:51:57.127Z,1.90
2019-01-13T20:54:28.001Z,1.90
2019-01-13T20:56:58.456Z,2.00
2019-01-13T20:59:29.265Z,1.90
2019-01-13T21:02:01.165Z,1.90
2019-01-13T21:04:31.949Z,1.80
2019-01-13T21:07:02.590Z,1.80
2019-01-13T21:09:33.267Z,2.00
2019-01-13T21:12:06.890Z,2.10
2019-01-13T21:14:37.580Z,2.10
2019-01-13T21:17:08.808Z,2.20
2019-01-13T21:19:42.354Z,2.30
2019-01-13T21:22:13.056Z,2.30
2019-01-13T21:24:45.185Z,2.40
2019-01-13T21:27:15.722Z,2.40
2019-01-13T21:29:47.488Z,2.30
2019-01-13T21:32:18.133Z,2.20
2019-01-13T21:34:51.169Z,2.10
2019-01-13T21:37:21.872Z,2.10
2019-01-13T21:39:52.625Z,2.00
2019-01-13T21:42:23.595Z,1.90
2019-01-13T21:44:54.441Z,1.80
2019-01-13T21:47:25.040Z,1.80
2019-01-13T21:49:58.656Z,1.80
2019-01-13T21:52:29.628Z,1.60
2019-01-13T21:55:00.342Z,1.60
2019-01-13T21:57:33.060Z,1.60
2019-01-13T22:00:04.208Z,1.60
2019-01-13T22:02:34.808Z,1.60
2019-01-13T22:05:10.848Z,1.50
2019-01-13T22:07:41.905Z,1.60
2019-01-13T22:10:15.046Z,1.50
2019-01-13T22:12:45.610Z,1.60
2019-01-13T22:15:17.780Z,1.70
2019-01-13T22:17:48.431Z,1.70
2019-01-13T22:20:21.101Z,1.70
2019-01-13T22:22:52.111Z,1.80
2019-01-13T22:25:22.791Z,1.80
2019-01-13T22:27:56.686Z,1.90
2019-01-13T22:30:27.226Z,1.90
2019-01-13T22:32:58.168Z,1.90
2019-01-13T22:35:28.965Z,1.90
2019-01-13T22:37:59.910Z,1.90
2019-01-13T22:40:33.637Z,2.00
2019-01-13T22:43:04.545Z,2.00
2019-01-13T22:45:35.288Z,2.00
2019-01-13T22:48:07.441Z,2.10
2019-01-13T22:50:38.201Z,2.10
2019-01-13T22:53:10.025Z,2.00
2019-01-13T22:55:40.688Z,2.00
2019-01-13T22:58:11.824Z,2.00
2019-01-13T23:01:07.046Z,2.10
2019-01-13T23:03:40.946Z,2.00
2019-01-13T23:06:14.101Z,2.10
2019-01-13T23:08:44.776Z,2.10
2019-01-13T23:11:17.086Z,2.10
2019-01-13T23:13:49.655Z,2.10
2019-01-13T23:16:20.431Z,2.10
2019-01-13T23:18:51.966Z,2.20
2019-01-13T23:21:27.926Z,2.10
2019-01-13T23:24:01.344Z,2.10
2019-01-13T23:26:31.940Z,2.10
2019-01-13T23:29:02.562Z,2.10
2019-01-13T23:31:34.175Z,2.10
2019-01-13T23:34:06.386Z,2.10
2019-01-13T23:36:37.383Z,2.20
2019-01-13T23:39:10.287Z,2.20
2019-01-13T23:41:41.046Z,2.10
2019-01-13T23:44:12.092Z,2.10
2019-01-13T23:46:42.767Z,2.10
2019-01-13T23:49:13.492Z,2.10
2019-01-13T23:51:46.510Z,2.20
2019-01-13T23:54:19.936Z,2.20
2019-01-13T23:56:50.651Z,2.20
2019-01-13T23:59:21.129Z,2.20
